Time;durP1;ratioP1;P1;durP2;ratioP2;P2;SDS_P1;SDS_P2;PMS_P1;PMS_P2;Temp;Humidity;BMP_temperature;BMP_pressure;BME280_temperature;BME280_humidity;BME280_pressure;Samples;Min_cycle;Max_cycle;Signal;HPM_P1;HPM_P2
2023/03/31 00:01:35;;;;;;;12.23;2.58;;;12.10;99.90;;;;;;5101648;28;20024;-69
2023/03/31 00:04:04;;;;;;;11.40;2.22;;;12.00;99.90;;;;;;5118611;28;20046;-70
2023/03/31 00:06:36;;;;;;;13.95;2.58;;;12.10;99.90;;;;;;5085010;28;20028;-71
2023/03/31 00:09:05;;;;;;;18.10;2.83;;;12.10;99.90;;;;;;5118467;28;20039;-66
2023/03/31 00:11:30;;;;;;;14.77;2.38;;;12.10;99.90;;;;;;5101597;28;20032;-65
2023/03/31 00:13:56;;;;;;;12.70;1.85;;;12.10;99.90;;;;;;5118265;28;20032;-67
2023/03/31 00:16:23;;;;;;;13.57;2.20;;;12.00;99.90;;;;;;5118312;28;20301;-65
2023/03/31 00:18:49;;;;;;;8.23;2.33;;;11.90;99.90;;;;;;5118944;27;20027;-67
2023/03/31 00:21:23;;;;;;;14.57;2.55;;;11.90;99.90;;;;;;5102087;28;20043;-70
2023/03/31 00:23:54;;;;;;;13.73;2.35;;;11.80;99.90;;;;;;5101096;28;20122;-71
2023/03/31 00:26:21;;;;;;;10.85;2.55;;;11.80;99.90;;;;;;5100809;28;20035;-67
2023/03/31 00:28:48;;;;;;;12.65;2.63;;;11.70;99.90;;;;;;5101014;28;20085;-65
2023/03/31 00:31:14;;;;;;;14.05;2.50;;;11.70;99.90;;;;;;5100951;28;20040;-67
2023/03/31 00:33:40;;;;;;;13.77;2.83;;;11.70;99.90;;;;;;5118668;28;20110;-66
2023/03/31 00:36:06;;;;;;;15.43;3.15;;;11.70;99.90;;;;;;5117867;28;20346;-65
2023/03/31 00:38:33;;;;;;;20.13;2.70;;;11.70;99.90;;;;;;5117747;28;20040;-66
2023/03/31 00:40:59;;;;;;;12.23;3.05;;;11.70;99.90;;;;;;5117536;28;20085;-67
2023/03/31 00:43:34;;;;;;;12.07;2.17;;;11.70;99.90;;;;;;5117668;28;20024;-64
2023/03/31 00:46:18;;;;;;;17.52;2.78;;;11.60;99.90;;;;;;5118373;28;20081;-65
2023/03/31 00:48:52;;;;;;;15.27;3.08;;;11.60;99.90;;;;;;5118528;28;20027;-65
2023/03/31 00:51:21;;;;;;;15.10;2.97;;;11.60;99.90;;;;;;5118443;28;20359;-66
2023/03/31 00:53:56;;;;;;;15.48;2.67;;;11.50;99.90;;;;;;5117534;28;20282;-66
2023/03/31 00:56:23;;;;;;;12.95;2.58;;;11.50;99.90;;;;;;5118251;28;20034;-66
2023/03/31 00:58:49;;;;;;;20.35;2.55;;;11.50;99.90;;;;;;5118063;28;20046;-65
2023/03/31 01:01:18;;;;;;;9.30;2.28;;;11.50;99.90;;;;;;5117378;28;20452;-62
2023/03/31 01:03:45;;;;;;;16.42;2.58;;;11.50;99.90;;;;;;5117995;28;20034;-60
2023/03/31 01:06:13;;;;;;;10.73;2.67;;;11.40;99.90;;;;;;5117968;28;20080;-62
2023/03/31 01:08:40;;;;;;;16.25;2.50;;;11.40;99.90;;;;;;5117903;28;20103;-62
2023/03/31 01:11:10;;;;;;;15.38;2.63;;;11.30;99.90;;;;;;5117149;28;20042;-65
2023/03/31 01:13:38;;;;;;;11.60;2.10;;;11.30;99.90;;;;;;5118061;28;20305;-63
2023/03/31 01:16:08;;;;;;;9.67;2.17;;;11.30;99.90;;;;;;5117128;28;20114;-64
2023/03/31 01:18:34;;;;;;;10.38;1.90;;;11.30;99.90;;;;;;5116997;28;20039;-62
2023/03/31 01:21:29;;;;;;;14.10;2.08;;;11.20;99.90;;;;;;5117779;28;20393;-63
2023/03/31 01:24:04;;;;;;;12.32;2.10;;;11.10;99.90;;;;;;5100044;28;20419;-62
2023/03/31 01:26:45;;;;;;;9.88;1.55;;;11.10;99.90;;;;;;5117974;28;20047;-61
2023/03/31 01:29:35;;;;;;;9.93;2.45;;;11.10;99.90;;;;;;5117653;28;20024;-60
2023/03/31 01:32:19;;;;;;;11.23;1.60;;;11.10;99.90;;;;;;5099841;28;20053;-60
2023/03/31 01:35:18;;;;;;;10.25;1.85;;;11.00;99.90;;;;;;5117568;28;20141;-61
2023/03/31 01:37:44;;;;;;;9.20;1.60;;;11.00;99.90;;;;;;5116904;28;20031;-61
2023/03/31 01:40:37;;;;;;;9.23;1.73;;;10.90;99.90;;;;;;5117474;28;20023;-60
2023/03/31 01:43:18;;;;;;;10.18;1.60;;;10.90;99.90;;;;;;5099686;28;20070;-61
2023/03/31 01:46:20;;;;;;;15.13;1.65;;;10.90;99.90;;;;;;5117642;28;20273;-61
2023/03/31 01:49:07;;;;;;;9.20;1.48;;;10.90;99.90;;;;;;5116712;28;20031;-63
2023/03/31 01:51:59;;;;;;;8.20;1.60;;;10.90;99.90;;;;;;5116684;28;20363;-61
2023/03/31 01:54:49;;;;;;;9.50;1.60;;;10.90;99.90;;;;;;5099905;28;20023;-61
2023/03/31 01:57:35;;;;;;;10.82;1.75;;;10.90;99.90;;;;;;5117748;28;20023;-61
2023/03/31 02:00:04;;;;;;;11.98;2.30;;;10.90;99.90;;;;;;5116461;28;20068;-61
2023/03/31 02:02:56;;;;;;;15.98;2.50;;;10.90;99.90;;;;;;5117195;28;20128;-62
2023/03/31 02:05:26;;;;;;;11.93;1.95;;;10.90;99.90;;;;;;5099529;28;20059;-61
2023/03/31 02:08:00;;;;;;;12.63;2.30;;;10.90;99.90;;;;;;5117192;28;20341;-62
2023/03/31 02:10:30;;;;;;;15.63;2.72;;;10.90;99.90;;;;;;5116573;28;20020;-61
2023/03/31 02:13:00;;;;;;;9.68;2.40;;;10.90;99.90;;;;;;5117452;28;20061;-62
2023/03/31 02:15:30;;;;;;;11.80;2.47;;;10.90;99.90;;;;;;5099355;28;20043;-61
2023/03/31 02:17:59;;;;;;;18.17;3.53;;;10.90;99.90;;;;;;5117023;28;20032;-62
2023/03/31 02:20:27;;;;;;;16.88;2.90;;;10.90;99.90;;;;;;5117095;28;20024;-62
2023/03/31 02:22:55;;;;;;;12.00;3.00;;;11.00;99.90;;;;;;5116174;28;20051;-61
2023/03/31 02:25:26;;;;;;;13.45;3.15;;;11.00;99.90;;;;;;5117389;28;20084;-61
2023/03/31 02:28:07;;;;;;;16.00;3.80;;;10.90;99.90;;;;;;5099255;28;20019;-61
2023/03/31 02:30:43;;;;;;;16.45;2.95;;;10.90;99.90;;;;;;5117056;28;20027;-62
2023/03/31 02:33:09;;;;;;;14.13;3.17;;;11.00;99.90;;;;;;5116280;28;20062;-62
2023/03/31 02:35:35;;;;;;;9.18;2.25;;;11.00;99.90;;;;;;5082447;28;20047;-62
2023/03/31 02:38:05;;;;;;;11.68;3.20;;;11.00;99.90;;;;;;5099384;28;20313;-61
2023/03/31 02:40:31;;;;;;;13.43;2.60;;;11.00;99.90;;;;;;5099555;28;20312;-63
2023/03/31 02:42:58;;;;;;;11.73;2.45;;;11.00;99.90;;;;;;5099298;28;20058;-61
2023/03/31 02:45:36;;;;;;;12.55;2.28;;;10.90;99.90;;;;;;5099071;28;20032;-62
2023/03/31 02:48:02;;;;;;;8.75;1.83;;;10.90;99.90;;;;;;5116878;28;20359;-63
2023/03/31 02:50:58;;;;;;;8.70;1.60;;;10.90;99.90;;;;;;5119688;28;20023;-62
2023/03/31 02:53:33;;;;;;;14.20;1.83;;;10.90;99.90;;;;;;5102913;28;20075;-61
2023/03/31 02:56:20;;;;;;;12.10;1.80;;;10.90;99.90;;;;;;5120601;28;20041;-61
2023/03/31 02:58:49;;;;;;;9.13;1.83;;;10.80;99.90;;;;;;5090062;27;20415;-58
2023/03/31 03:01:46;;;;;;;6.50;1.30;;;10.80;99.90;;;;;;5119875;28;20040;-62
2023/03/31 03:04:24;;;;;;;8.02;1.60;;;10.80;99.90;;;;;;5088993;27;20047;-60
2023/03/31 03:07:10;;;;;;;7.75;1.20;;;10.70;99.90;;;;;;5120441;28;20023;-59
2023/03/31 03:09:36;;;;;;;11.90;1.60;;;10.70;99.90;;;;;;5119560;28;20028;-59
2023/03/31 03:12:13;;;;;;;8.00;1.23;;;10.70;99.90;;;;;;5120463;28;20038;-60
2023/03/31 03:15:02;;;;;;;6.68;1.20;;;10.60;99.90;;;;;;5119907;28;20392;-59
2023/03/31 03:17:43;;;;;;;9.43;1.40;;;10.60;99.90;;;;;;5119591;28;20092;-59
2023/03/31 03:20:10;;;;;;;7.05;1.65;;;10.60;99.90;;;;;;5120083;28;20027;-59
2023/03/31 03:22:38;;;;;;;5.53;1.33;;;10.50;99.90;;;;;;5120014;28;20031;-60
2023/03/31 03:25:06;;;;;;;6.20;1.45;;;10.50;99.90;;;;;;5120248;28;20346;-59
2023/03/31 03:27:32;;;;;;;11.48;2.00;;;10.50;99.90;;;;;;5119794;28;20028;-60
2023/03/31 03:29:57;;;;;;;7.18;1.50;;;10.50;99.90;;;;;;5119899;28;20380;-59
2023/03/31 03:32:23;;;;;;;11.18;1.55;;;10.50;99.90;;;;;;5119894;28;20408;-60
2023/03/31 03:34:49;;;;;;;8.35;1.50;;;10.50;99.90;;;;;;5120050;28;20036;-60
2023/03/31 03:37:15;;;;;;;11.13;2.05;;;10.40;99.90;;;;;;5119764;28;20299;-59
2023/03/31 03:39:41;;;;;;;6.47;1.45;;;10.40;99.90;;;;;;5102022;28;20036;-58
2023/03/31 03:42:07;;;;;;;10.93;1.67;;;10.50;99.90;;;;;;5119632;28;20052;-58
2023/03/31 03:44:32;;;;;;;8.38;1.83;;;10.40;99.90;;;;;;5119490;28;20102;-58
2023/03/31 03:46:58;;;;;;;11.10;1.73;;;10.50;99.90;;;;;;5119612;28;20024;-58
2023/03/31 03:49:24;;;;;;;9.82;2.15;;;10.40;99.90;;;;;;5118698;28;20031;-58
2023/03/31 03:51:50;;;;;;;10.60;1.73;;;10.40;99.90;;;;;;5119648;28;20388;-58
2023/03/31 03:54:16;;;;;;;11.05;1.80;;;10.40;99.90;;;;;;5119515;28;20279;-58
2023/03/31 03:56:42;;;;;;;9.93;2.00;;;10.40;99.90;;;;;;5119384;28;20043;-58
2023/03/31 03:59:07;;;;;;;9.55;1.92;;;10.40;99.90;;;;;;5101634;28;20108;-58
2023/03/31 04:01:33;;;;;;;11.07;2.13;;;10.40;99.90;;;;;;5118600;28;20130;-59
2023/03/31 04:03:59;;;;;;;9.10;1.67;;;10.40;99.90;;;;;;5119253;28;20122;-58
2023/03/31 04:06:25;;;;;;;9.57;1.70;;;10.40;99.90;;;;;;5118633;28;20129;-58
2023/03/31 04:08:51;;;;;;;11.93;2.20;;;10.40;99.90;;;;;;5119147;28;20107;-59
2023/03/31 04:11:18;;;;;;;8.27;2.10;;;10.40;99.90;;;;;;5119028;28;20063;-58
2023/03/31 04:13:44;;;;;;;8.35;1.58;;;10.40;99.90;;;;;;5118993;28;20040;-58
2023/03/31 04:16:11;;;;;;;10.10;1.80;;;10.40;99.90;;;;;;5118566;28;20448;-58
2023/03/31 04:18:41;;;;;;;6.85;1.48;;;10.40;99.90;;;;;;5118921;28;20023;-58
2023/03/31 04:21:14;;;;;;;7.93;1.77;;;10.40;99.90;;;;;;5119032;28;20089;-59
2023/03/31 04:23:47;;;;;;;9.02;1.50;;;10.30;99.90;;;;;;5118771;28;20059;-58
2023/03/31 04:26:17;;;;;;;5.65;1.55;;;10.30;99.90;;;;;;5118773;27;20475;-59
2023/03/31 04:28:45;;;;;;;6.82;1.35;;;10.30;99.90;;;;;;5118833;28;20024;-58
2023/03/31 04:31:23;;;;;;;8.68;1.50;;;10.30;99.90;;;;;;5118651;28;20019;-58
2023/03/31 04:33:53;;;;;;;6.57;1.55;;;10.40;99.90;;;;;;5117844;28;20030;-58
2023/03/31 04:36:20;;;;;;;4.55;1.40;;;10.40;99.90;;;;;;5118473;28;20078;-59
2023/03/31 04:38:49;;;;;;;7.40;1.50;;;10.40;99.90;;;;;;5118537;28;20055;-59
2023/03/31 04:41:16;;;;;;;7.38;1.55;;;10.40;99.90;;;;;;5117576;28;20320;-58
2023/03/31 04:43:42;;;;;;;6.20;1.17;;;10.40;99.90;;;;;;5118442;28;20032;-59
2023/03/31 04:46:08;;;;;;;6.43;1.30;;;10.40;99.90;;;;;;5117546;28;20038;-58
2023/03/31 04:48:34;;;;;;;6.10;1.13;;;10.50;99.90;;;;;;5118449;28;20024;-58
2023/03/31 04:51:01;;;;;;;7.53;1.27;;;10.50;99.90;;;;;;5100553;28;20034;-58
2023/03/31 04:53:27;;;;;;;7.45;1.40;;;10.40;99.90;;;;;;5118438;28;20277;-57
2023/03/31 04:55:53;;;;;;;5.32;0.95;;;10.40;99.90;;;;;;5117706;28;20065;-58
2023/03/31 04:58:19;;;;;;;7.28;1.30;;;10.40;99.90;;;;;;5118075;28;20401;-57
2023/03/31 05:00:45;;;;;;;4.82;1.20;;;10.30;99.90;;;;;;5118389;28;20457;-57
2023/03/31 05:03:10;;;;;;;4.75;1.20;;;10.30;99.90;;;;;;5117868;28;20028;-57
2023/03/31 05:05:36;;;;;;;3.35;0.90;;;10.40;99.90;;;;;;5117904;28;20023;-57
2023/03/31 05:08:02;;;;;;;4.88;1.05;;;10.50;99.90;;;;;;5118249;28;20089;-57
2023/03/31 05:10:29;;;;;;;5.72;1.17;;;10.60;99.90;;;;;;5117776;28;20051;-58
2023/03/31 05:12:55;;;;;;;6.50;1.33;;;10.50;99.90;;;;;;5116975;28;20106;-58
2023/03/31 05:15:23;;;;;;;8.65;1.63;;;10.40;99.90;;;;;;5118366;28;20032;-58
2023/03/31 05:17:49;;;;;;;2.90;1.30;;;10.20;99.90;;;;;;5117149;28;20089;-58
2023/03/31 05:20:15;;;;;;;8.05;1.40;;;10.20;99.90;;;;;;5117675;28;20396;-58
2023/03/31 05:22:41;;;;;;;6.25;2.10;;;10.10;99.90;;;;;;5117757;28;20031;-58
2023/03/31 05:25:08;;;;;;;6.32;1.75;;;10.10;99.90;;;;;;5117078;28;20028;-58
2023/03/31 05:27:35;;;;;;;8.50;2.10;;;10.10;99.90;;;;;;5117837;28;20027;-57
2023/03/31 05:30:02;;;;;;;9.02;1.75;;;10.10;99.90;;;;;;5117633;28;20035;-57
2023/03/31 05:32:28;;;;;;;4.32;1.45;;;10.20;99.90;;;;;;5100132;28;20024;-59
2023/03/31 05:34:56;;;;;;;10.82;2.10;;;10.20;99.90;;;;;;5116591;28;20050;-58
2023/03/31 05:37:23;;;;;;;7.90;1.52;;;10.20;99.90;;;;;;5117452;28;20049;-57
2023/03/31 05:39:49;;;;;;;8.02;2.60;;;10.20;99.90;;;;;;5099995;28;20292;-58
2023/03/31 05:42:16;;;;;;;9.95;2.10;;;10.20;99.90;;;;;;5099555;28;20048;-58
2023/03/31 05:44:41;;;;;;;9.18;2.15;;;10.30;99.90;;;;;;5099684;28;20457;-60
2023/03/31 05:47:07;;;;;;;12.82;2.58;;;10.40;99.90;;;;;;5116611;28;20036;-59
2023/03/31 05:49:33;;;;;;;10.35;3.08;;;10.60;99.90;;;;;;5117259;28;20016;-60
2023/03/31 05:51:59;;;;;;;11.20;2.90;;;10.70;99.90;;;;;;5099672;28;20028;-59
2023/03/31 05:54:26;;;;;;;10.15;4.22;;;10.90;99.90;;;;;;5116616;28;20035;-58
2023/03/31 05:56:52;;;;;;;6.15;3.97;;;10.80;99.90;;;;;;5116699;28;20043;-58
2023/03/31 05:59:18;;;;;;;6.63;4.00;;;10.80;99.90;;;;;;5117177;28;20027;-58
2023/03/31 06:01:44;;;;;;;7.65;3.28;;;10.70;99.90;;;;;;5117201;28;20047;-58
2023/03/31 06:04:10;;;;;;;9.77;3.53;;;10.60;99.90;;;;;;5116536;28;20297;-59
2023/03/31 06:06:36;;;;;;;11.55;3.45;;;10.50;99.90;;;;;;5099352;28;20038;-58
2023/03/31 06:09:04;;;;;;;7.40;3.22;;;10.60;99.90;;;;;;5116461;28;20078;-58
2023/03/31 06:11:30;;;;;;;9.65;3.20;;;10.60;99.90;;;;;;5117261;28;20043;-58
2023/03/31 06:13:56;;;;;;;10.55;3.50;;;10.60;99.90;;;;;;5116434;28;20028;-57
2023/03/31 06:16:22;;;;;;;13.27;3.05;;;10.60;99.90;;;;;;5116503;28;20115;-59
2023/03/31 06:18:50;;;;;;;17.08;2.88;;;10.60;99.90;;;;;;5116473;28;20052;-58
2023/03/31 06:21:17;;;;;;;11.77;2.72;;;10.60;99.90;;;;;;5116198;28;20063;-58
2023/03/31 06:23:44;;;;;;;11.85;2.95;;;10.60;99.90;;;;;;5117603;28;20039;-57
2023/03/31 06:26:18;;;;;;;10.93;2.60;;;10.70;99.90;;;;;;5120931;28;20046;-58
2023/03/31 06:28:45;;;;;;;15.65;2.95;;;10.80;99.90;;;;;;5120378;28;20028;-59
2023/03/31 06:31:14;;;;;;;16.42;2.70;;;10.80;99.90;;;;;;5121330;28;20019;-58
2023/03/31 06:33:41;;;;;;;13.82;2.95;;;10.90;99.90;;;;;;5120927;27;20038;-58
2023/03/31 06:36:08;;;;;;;13.25;2.85;;;10.90;99.90;;;;;;5120182;28;20088;-58
2023/03/31 06:38:37;;;;;;;13.85;3.10;;;10.90;99.90;;;;;;5120823;28;20054;-59
2023/03/31 06:41:05;;;;;;;17.67;2.88;;;10.90;99.90;;;;;;5120365;28;20116;-58
2023/03/31 06:43:31;;;;;;;14.63;2.78;;;10.90;99.90;;;;;;5119985;28;20035;-57
2023/03/31 06:45:57;;;;;;;12.65;2.63;;;10.90;99.90;;;;;;5120764;28;20296;-58
2023/03/31 06:48:24;;;;;;;13.65;3.60;;;10.90;99.90;;;;;;5119907;28;20174;-58
2023/03/31 06:50:52;;;;;;;17.83;2.97;;;11.10;99.90;;;;;;5119960;28;20036;-58
2023/03/31 06:53:17;;;;;;;14.35;2.60;;;11.00;99.90;;;;;;5120664;28;20028;-58
2023/03/31 06:55:43;;;;;;;15.10;2.83;;;11.00;99.90;;;;;;5120495;28;20031;-59
2023/03/31 06:58:11;;;;;;;20.83;3.42;;;11.00;99.90;;;;;;5120711;28;20317;-58
2023/03/31 07:00:37;;;;;;;20.00;3.08;;;11.00;99.90;;;;;;5120476;28;20284;-59
2023/03/31 07:03:03;;;;;;;14.48;2.40;;;11.00;99.90;;;;;;5119535;28;20100;-58
2023/03/31 07:05:30;;;;;;;15.13;3.20;;;11.00;99.90;;;;;;5120426;28;20055;-58
2023/03/31 07:07:58;;;;;;;13.57;2.83;;;11.10;99.90;;;;;;5120464;28;20146;-59
2023/03/31 07:10:26;;;;;;;21.48;3.03;;;11.10;99.90;;;;;;5120352;28;20044;-58
2023/03/31 07:12:52;;;;;;;15.13;2.30;;;11.10;99.90;;;;;;5119839;28;20455;-58
2023/03/31 07:15:19;;;;;;;14.18;3.05;;;11.20;99.90;;;;;;5120767;28;20115;-58
2023/03/31 07:17:49;;;;;;;17.73;3.00;;;11.20;99.90;;;;;;5120029;28;20073;-58
2023/03/31 07:20:17;;;;;;;13.40;2.92;;;11.30;99.90;;;;;;5119285;28;20123;-58
2023/03/31 07:22:47;;;;;;;14.63;3.58;;;11.30;99.90;;;;;;5119832;28;20027;-58
2023/03/31 07:25:16;;;;;;;17.77;3.20;;;11.30;99.90;;;;;;5119824;28;20066;-59
2023/03/31 07:27:42;;;;;;;18.42;3.55;;;11.30;99.90;;;;;;5118982;28;20392;-60
2023/03/31 07:30:12;;;;;;;16.60;2.75;;;11.40;99.90;;;;;;5119257;28;20036;-59
2023/03/31 07:32:39;;;;;;;21.90;3.38;;;11.40;99.90;;;;;;5119788;28;20055;-58
2023/03/31 07:35:07;;;;;;;19.30;3.05;;;11.40;99.90;;;;;;5119033;28;20066;-59
2023/03/31 07:37:36;;;;;;;17.70;3.25;;;11.50;99.90;;;;;;5119577;28;20039;-59
2023/03/31 07:40:05;;;;;;;20.60;2.90;;;11.50;99.90;;;;;;5119696;28;20028;-56
2023/03/31 07:42:31;;;;;;;17.83;2.80;;;11.60;99.90;;;;;;5119439;28;20374;-58
2023/03/31 07:44:57;;;;;;;11.98;2.60;;;11.60;99.90;;;;;;5119557;28;20035;-60
2023/03/31 07:47:25;;;;;;;14.05;2.92;;;11.60;99.90;;;;;;5119507;28;20039;-59
2023/03/31 07:49:50;;;;;;;16.38;3.20;;;11.60;99.90;;;;;;5118824;28;20063;-60
2023/03/31 07:52:18;;;;;;;14.27;2.97;;;11.60;99.90;;;;;;5119462;28;20325;-60
2023/03/31 07:54:47;;;;;;;16.33;3.10;;;11.60;99.90;;;;;;5119442;28;20032;-60
2023/03/31 07:57:12;;;;;;;18.33;3.28;;;11.60;99.90;;;;;;5119379;28;20035;-58
2023/03/31 07:59:39;;;;;;;11.30;2.90;;;11.60;99.90;;;;;;5119320;28;20035;-60
2023/03/31 08:02:05;;;;;;;16.38;2.85;;;11.60;99.90;;;;;;5118547;28;20088;-58
2023/03/31 08:04:31;;;;;;;22.35;3.50;;;11.60;99.90;;;;;;5118588;28;20046;-58
2023/03/31 08:06:57;;;;;;;14.75;2.58;;;11.60;99.90;;;;;;5119677;28;20341;-60
2023/03/31 08:09:23;;;;;;;18.80;3.17;;;11.60;99.90;;;;;;5101345;28;20420;-60
2023/03/31 08:11:49;;;;;;;17.38;3.03;;;11.60;99.90;;;;;;5118588;28;20027;-61
2023/03/31 08:14:15;;;;;;;20.23;2.95;;;11.70;99.90;;;;;;5119060;28;20035;-64
2023/03/31 08:16:41;;;;;;;14.98;3.08;;;11.70;99.90;;;;;;5118414;28;20028;-62
2023/03/31 08:19:06;;;;;;;15.95;3.47;;;11.70;99.90;;;;;;5118228;28;20031;-67
2023/03/31 08:21:32;;;;;;;16.40;3.15;;;11.70;99.90;;;;;;5101198;28;20031;-67
2023/03/31 08:23:58;;;;;;;17.08;2.50;;;11.80;99.90;;;;;;5118067;28;20040;-59
2023/03/31 08:26:24;;;;;;;13.60;2.90;;;11.70;99.90;;;;;;5118085;28;20035;-58
2023/03/31 08:28:51;;;;;;;12.10;2.60;;;11.70;99.90;;;;;;5117978;28;20034;-64
2023/03/31 08:31:20;;;;;;;22.90;2.97;;;11.70;99.90;;;;;;5117868;28;20081;-61
2023/03/31 08:33:46;;;;;;;16.08;3.03;;;11.70;99.90;;;;;;5118659;28;20035;-60
2023/03/31 08:36:12;;;;;;;20.80;3.30;;;11.60;99.90;;;;;;5118143;28;20029;-62
2023/03/31 08:38:40;;;;;;;20.95;3.55;;;11.60;99.90;;;;;;5118689;28;20062;-62
2023/03/31 08:41:30;;;;;;;18.88;2.72;;;11.60;99.90;;;;;;5117868;28;20439;-67
2023/03/31 08:43:59;;;;;;;19.42;3.55;;;11.70;99.90;;;;;;5117723;28;20092;-65
2023/03/31 08:46:28;;;;;;;17.05;2.80;;;11.70;99.90;;;;;;5117544;28;20106;-64
2023/03/31 08:48:57;;;;;;;16.58;2.63;;;11.80;99.90;;;;;;5118320;28;20336;-63
2023/03/31 08:51:38;;;;;;;13.70;2.38;;;11.90;99.90;;;;;;5118177;28;20063;-65
2023/03/31 08:54:10;;;;;;;17.08;2.67;;;12.00;99.90;;;;;;5117577;28;20049;-65
2023/03/31 08:56:41;;;;;;;13.88;3.22;;;12.10;99.90;;;;;;5118851;28;20316;-64
2023/03/31 08:59:23;;;;;;;10.70;2.30;;;12.10;99.90;;;;;;5118235;28;20404;-61
2023/03/31 09:01:59;;;;;;;15.10;3.00;;;12.20;99.90;;;;;;5118076;28;20032;-66
2023/03/31 09:04:31;;;;;;;10.85;2.17;;;12.20;99.90;;;;;;5118079;28;20059;-66
2023/03/31 09:07:25;;;;;;;11.90;2.97;;;12.30;99.90;;;;;;5117969;28;20019;-63
2023/03/31 09:09:58;;;;;;;13.57;2.78;;;12.30;99.90;;;;;;5118486;28;20377;-65
2023/03/31 09:12:42;;;;;;;11.15;2.42;;;12.40;99.90;;;;;;5117913;28;20299;-64
2023/03/31 09:15:31;;;;;;;12.10;2.38;;;12.40;99.90;;;;;;5117051;28;20308;-67
2023/03/31 09:18:05;;;;;;;13.25;2.75;;;12.30;99.90;;;;;;5117032;28;20121;-61
2023/03/31 09:20:38;;;;;;;14.40;2.85;;;12.40;99.90;;;;;;5117987;28;20024;-70
2023/03/31 09:23:18;;;;;;;11.50;2.65;;;12.40;99.90;;;;;;5118052;28;20277;-62
2023/03/31 09:25:45;;;;;;;11.23;2.40;;;12.40;99.90;;;;;;5117821;28;20093;-69
2023/03/31 09:28:19;;;;;;;15.20;2.90;;;12.40;99.90;;;;;;5116871;28;20027;-60
2023/03/31 09:30:50;;;;;;;14.93;2.80;;;12.30;99.90;;;;;;5117126;28;20035;-65
2023/03/31 09:33:30;;;;;;;11.98;2.50;;;12.30;99.90;;;;;;5116769;28;20028;-67
2023/03/31 09:36:00;;;;;;;13.80;2.88;;;12.30;99.90;;;;;;5117621;28;20035;-66
2023/03/31 09:38:30;;;;;;;17.10;2.75;;;12.30;99.90;;;;;;5116818;28;20299;-62
2023/03/31 09:41:04;;;;;;;16.40;3.22;;;12.30;99.90;;;;;;5116545;28;20423;-65
2023/03/31 09:43:37;;;;;;;13.23;2.47;;;12.20;99.90;;;;;;5117445;28;20047;-66
2023/03/31 09:46:11;;;;;;;18.42;3.22;;;12.10;99.90;;;;;;5117399;28;20127;-61
2023/03/31 09:48:38;;;;;;;14.82;3.20;;;12.10;99.90;;;;;;5117461;28;20024;-61
2023/03/31 09:51:10;;;;;;;15.90;2.92;;;12.00;99.90;;;;;;5117348;28;20023;-65
2023/03/31 09:53:51;;;;;;;17.27;3.03;;;11.90;99.90;;;;;;5116622;28;20041;-63
2023/03/31 09:56:34;;;;;;;22.67;4.03;;;11.80;99.90;;;;;;5116956;28;20297;-66
2023/03/31 09:59:02;;;;;;;20.98;3.33;;;11.80;99.90;;;;;;5115867;28;20038;-67
2023/03/31 10:01:28;;;;;;;16.63;3.28;;;11.80;99.90;;;;;;5116406;28;20293;-65
2023/03/31 10:03:55;;;;;;;22.48;3.25;;;11.90;99.90;;;;;;5116979;28;20071;-63
2023/03/31 10:06:23;;;;;;;15.20;2.97;;;12.00;99.90;;;;;;5117207;28;20032;-66
2023/03/31 10:09:10;;;;;;;22.05;3.97;;;12.10;99.90;;;;;;5116348;28;20032;-64
2023/03/31 10:11:37;;;;;;;16.10;2.83;;;12.10;99.90;;;;;;5116455;28;20094;-63
2023/03/31 10:14:12;;;;;;;16.30;3.28;;;12.10;99.90;;;;;;5116322;28;20035;-62
2023/03/31 10:16:54;;;;;;;17.35;3.65;;;12.20;99.90;;;;;;5117731;28;20088;-64
2023/03/31 10:19:33;;;;;;;21.55;3.42;;;12.20;99.90;;;;;;5116267;28;20106;-63
2023/03/31 10:22:36;;;;;;;16.17;3.15;;;12.10;99.90;;;;;;5117002;28;20027;-59
2023/03/31 10:25:17;;;;;;;21.58;3.55;;;12.20;99.90;;;;;;5038538;28;20425;-65
2023/03/31 10:27:47;;;;;;;19.27;3.38;;;12.10;99.90;;;;;;5110239;28;20067;-62
2023/03/31 10:30:21;;;;;;;17.63;3.30;;;12.20;99.90;;;;;;5116293;28;20046;-64
2023/03/31 10:32:47;;;;;;;17.33;2.92;;;12.20;99.90;;;;;;5116124;28;20469;-64
2023/03/31 10:35:22;;;;;;;19.65;2.83;;;12.40;99.90;;;;;;5116870;28;20296;-63
2023/03/31 10:37:49;;;;;;;12.73;2.88;;;12.60;99.90;;;;;;5116968;28;20039;-68
2023/03/31 10:40:22;;;;;;;20.10;2.90;;;12.70;99.90;;;;;;5116945;28;20451;-63
2023/03/31 10:42:57;;;;;;;;;;;12.90;99.90;;;;;;5116529;28;20339;-69
2023/03/31 10:45:25;;;;;;;18.20;3.25;;;12.80;99.90;;;;;;5116916;28;20238;-64
2023/03/31 10:47:59;;;;;;;17.17;3.38;;;12.90;99.90;;;;;;5116855;28;20092;-65
2023/03/31 10:50:34;;;;;;;22.52;3.63;;;12.80;99.90;;;;;;5117009;28;20023;-67
2023/03/31 10:53:03;;;;;;;15.13;2.92;;;12.80;99.90;;;;;;5117145;28;20115;-64
2023/03/31 10:55:59;;;;;;;19.80;3.63;;;12.80;99.90;;;;;;5116663;28;20027;-69
2023/03/31 10:58:28;;;;;;;14.88;3.30;;;12.70;99.90;;;;;;5113554;28;20369;-64
2023/03/31 11:01:05;;;;;;;13.43;3.25;;;12.80;99.90;;;;;;5116142;28;20039;-63
2023/03/31 11:03:37;;;;;;;19.50;2.75;;;12.70;99.90;;;;;;5098959;28;20303;-67
2023/03/31 11:06:15;;;;;;;20.13;3.40;;;12.70;99.90;;;;;;5115908;28;20075;-66
2023/03/31 11:09:05;;;;;;;16.52;3.08;;;12.70;99.90;;;;;;5115849;28;20307;-66
2023/03/31 11:12:10;;;;;;;13.93;2.97;;;12.80;99.90;;;;;;5118029;28;20070;-59
2023/03/31 11:15:08;;;;;;;14.77;2.67;;;12.70;99.90;;;;;;5119321;28;20030;-60
2023/03/31 11:17:51;;;;;;;15.43;2.65;;;12.70;99.90;;;;;;5119429;28;20066;-63
2023/03/31 11:20:20;;;;;;;16.05;3.08;;;12.50;99.90;;;;;;5120650;28;20103;-64
2023/03/31 11:23:10;;;;;;;14.05;2.80;;;12.30;99.90;;;;;;5119857;28;20036;-64
2023/03/31 11:26:01;;;;;;;12.15;3.15;;;12.30;99.90;;;;;;5120114;28;20345;-64
2023/03/31 11:28:48;;;;;;;14.60;3.00;;;12.30;99.90;;;;;;5120143;28;20020;-65
2023/03/31 11:31:23;;;;;;;16.35;2.40;;;12.40;99.90;;;;;;5119983;28;20055;-62
2023/03/31 11:34:09;;;;;;;17.70;3.25;;;12.60;99.90;;;;;;5119107;28;20071;-61
2023/03/31 11:36:48;;;;;;;10.48;2.15;;;12.60;99.90;;;;;;5102088;28;20313;-61
2023/03/31 11:39:43;;;;;;;13.05;2.40;;;12.70;99.90;;;;;;5119782;28;20115;-60
2023/03/31 11:42:26;;;;;;;15.07;2.33;;;12.60;99.90;;;;;;5118850;28;20428;-64
2023/03/31 11:45:01;;;;;;;12.15;2.42;;;12.50;99.90;;;;;;5119716;28;20098;-61
2023/03/31 11:47:33;;;;;;;10.18;2.05;;;12.40;99.90;;;;;;5118780;28;20028;-63
2023/03/31 11:50:19;;;;;;;12.23;2.22;;;12.50;99.90;;;;;;5119575;28;20023;-63
2023/03/31 11:53:02;;;;;;;11.00;1.80;;;12.60;99.90;;;;;;5119511;28;20041;-65
2023/03/31 11:55:31;;;;;;;11.52;1.90;;;12.80;99.90;;;;;;5119497;27;20059;-66
2023/03/31 11:57:59;;;;;;;9.70;2.10;;;12.70;99.90;;;;;;5118623;28;20038;-65
2023/03/31 12:00:40;;;;;;;11.13;2.17;;;12.80;99.90;;;;;;5119258;28;20039;-65
2023/03/31 12:03:33;;;;;;;7.88;1.60;;;12.80;99.90;;;;;;5118385;28;20031;-61
2023/03/31 12:06:04;;;;;;;;;;;12.80;99.90;;;;;;5119751;28;20106;-64
2023/03/31 12:08:51;;;;;;;10.02;1.92;;;12.70;99.90;;;;;;5118684;28;20010;-62
2023/03/31 12:11:28;;;;;;;10.00;1.90;;;12.50;99.90;;;;;;5101530;28;20031;-61
2023/03/31 12:14:12;;;;;;;8.57;2.00;;;12.20;99.90;;;;;;5118436;28;20039;-63
2023/03/31 12:16:44;;;;;;;10.50;1.80;;;12.10;99.90;;;;;;5119152;28;20043;-61
2023/03/31 12:19:51;;;;;;;12.50;2.20;;;12.00;99.90;;;;;;5118967;28;20102;-63
2023/03/31 12:22:25;;;;;;;10.70;2.10;;;11.80;99.90;;;;;;5094821;28;20307;-64
2023/03/31 12:24:52;;;;;;;10.18;1.52;;;11.70;99.90;;;;;;5118280;28;20028;-62
2023/03/31 12:27:43;;;;;;;14.48;2.05;;;11.60;99.90;;;;;;5118867;28;20019;-61
2023/03/31 12:30:27;;;;;;;11.55;2.15;;;11.60;99.90;;;;;;5118041;28;20384;-62
2023/03/31 12:33:43;;;;;;;9.05;1.48;;;11.70;99.90;;;;;;5118056;28;20042;-62
2023/03/31 12:36:25;;;;;;;10.75;1.50;;;11.70;99.90;;;;;;5100613;28;20043;-60
2023/03/31 12:39:22;;;;;;;7.35;1.77;;;11.60;99.90;;;;;;5118006;28;20107;-62
2023/03/31 12:41:59;;;;;;;6.55;1.30;;;11.70;99.90;;;;;;5118487;28;20058;-60
2023/03/31 12:44:45;;;;;;;4.72;1.00;;;11.80;99.90;;;;;;5118406;28;20070;-60
2023/03/31 12:47:33;;;;;;;4.97;1.40;;;11.80;99.90;;;;;;5117784;28;20036;-59
2023/03/31 12:50:37;;;;;;;6.10;1.25;;;11.80;99.90;;;;;;5118466;28;20385;-60
2023/03/31 12:53:39;;;;;;;5.57;1.20;;;11.80;99.90;;;;;;5117641;28;20047;-58
2023/03/31 12:56:05;;;;;;;7.38;0.90;;;11.70;99.90;;;;;;5063815;28;20080;-62
2023/03/31 12:58:40;;;;;;;5.32;1.33;;;11.70;99.90;;;;;;5118444;28;20024;-58
2023/03/31 13:01:20;;;;;;;5.60;1.00;;;11.70;99.90;;;;;;5118502;28;20103;-60
2023/03/31 13:04:16;;;;;;;8.57;1.73;;;11.60;99.90;;;;;;5118104;28;20304;-62
2023/03/31 13:06:42;;;;;;;7.85;1.40;;;11.60;99.90;;;;;;5118406;28;20038;-62
2023/03/31 13:09:14;;;;;;;8.50;1.40;;;11.50;99.90;;;;;;5117222;28;20056;-60